Time;durP1;ratioP1;P1;durP2;ratioP2;P2;SDS_P1;SDS_P2;PMS_P1;PMS_P2;Temp;Humidity;BMP_temperature;BMP_pressure;BME280_temperature;BME280_humidity;BME280_pressure;Samples;Min_cycle;Max_cycle;Signal;HPM_P1;HPM_P2
2021/12/29 00:00:35;;;;;;;2.17;0.70;;;22.00;85.90;;;;;;5129602;27;20414;-83
2021/12/29 00:03:03;;;;;;;4.05;0.75;;;21.60;87.90;;;;;;5129557;27;20438;-83
2021/12/29 00:05:30;;;;;;;3.03;0.77;;;21.70;89.60;;;;;;5129606;27;20374;-82
2021/12/29 00:07:58;;;;;;;2.53;0.68;;;21.80;89.00;;;;;;5129573;27;20377;-83
2021/12/29 00:10:28;;;;;;;2.53;0.70;;;21.90;86.00;;;;;;5129364;27;20357;-84
2021/12/29 00:12:56;;;;;;;4.18;0.80;;;21.90;86.60;;;;;;5130193;27;20450;-82
2021/12/29 00:15:27;;;;;;;2.33;0.70;;;22.20;86.50;;;;;;5129369;27;20867;-82
2021/12/29 00:17:56;;;;;;;1.98;0.60;;;22.30;87.50;;;;;;5129400;27;20395;-83
2021/12/29 00:20:29;;;;;;;2.00;0.57;;;22.40;87.20;;;;;;5129401;27;20528;-83
2021/12/29 00:22:59;;;;;;;2.65;0.60;;;22.60;86.50;;;;;;5129925;27;20477;-83
2021/12/29 00:25:26;;;;;;;2.80;0.60;;;22.90;85.30;;;;;;5129408;27;20357;-84
2021/12/29 00:27:58;;;;;;;1.27;0.65;;;23.20;82.20;;;;;;5129397;27;20381;-85
2021/12/29 00:30:26;;;;;;;3.17;0.52;;;23.30;81.10;;;;;;5129233;27;20441;-83
2021/12/29 00:32:53;;;;;;;5.30;0.70;;;23.20;80.90;;;;;;5110922;28;20373;-84
2021/12/29 00:35:20;;;;;;;2.28;0.70;;;22.80;82.00;;;;;;5129108;27;20460;-83
2021/12/29 00:37:47;;;;;;;2.47;0.90;;;22.40;84.20;;;;;;5129288;27;20377;-84
2021/12/29 00:40:14;;;;;;;3.33;0.83;;;22.40;85.00;;;;;;5129295;27;20462;-84
2021/12/29 00:42:42;;;;;;;3.90;0.75;;;22.50;85.20;;;;;;5129661;27;20408;-85
2021/12/29 00:45:10;;;;;;;1.77;0.70;;;22.70;84.20;;;;;;5129222;27;20365;-84
2021/12/29 00:47:38;;;;;;;2.70;0.70;;;22.80;84.10;;;;;;5129211;27;20379;-83
2021/12/29 00:50:09;;;;;;;2.65;0.80;;;22.70;83.60;;;;;;5110848;28;20381;-84
2021/12/29 00:52:37;;;;;;;3.03;0.90;;;22.50;83.20;;;;;;5129055;28;20372;-87
2021/12/29 00:55:04;;;;;;;1.65;0.60;;;22.60;85.10;;;;;;5129058;28;20361;-84
2021/12/29 00:57:31;;;;;;;1.57;0.63;;;22.80;82.90;;;;;;5129147;28;20376;-84
2021/12/29 00:59:59;;;;;;;2.30;0.70;;;22.80;82.50;;;;;;5129164;28;20717;-84
2021/12/29 01:02:27;;;;;;;4.40;0.80;;;22.80;82.50;;;;;;5130227;27;20415;-84
2021/12/29 01:04:54;;;;;;;1.48;0.50;;;22.70;83.00;;;;;;5133266;27;20388;-83
2021/12/29 01:07:21;;;;;;;2.67;0.70;;;22.70;82.90;;;;;;5133271;27;20373;-83
2021/12/29 01:09:49;;;;;;;3.25;0.60;;;22.60;83.30;;;;;;5133150;27;20856;-83
2021/12/29 01:12:16;;;;;;;2.30;0.60;;;22.60;84.00;;;;;;5133091;27;20377;-84
2021/12/29 01:14:51;;;;;;;2.50;0.73;;;22.70;84.60;;;;;;5133138;27;20376;-83
2021/12/29 01:17:18;;;;;;;1.75;0.60;;;22.70;84.40;;;;;;5133075;27;20380;-84
2021/12/29 01:19:45;;;;;;;2.53;0.70;;;22.80;83.80;;;;;;5132967;27;20388;-83
2021/12/29 01:22:13;;;;;;;2.53;0.70;;;23.10;84.00;;;;;;5132887;27;20913;-83
2021/12/29 01:24:42;;;;;;;2.75;0.70;;;23.30;82.10;;;;;;5132878;27;20380;-84
2021/12/29 01:27:10;;;;;;;3.70;0.70;;;23.40;82.40;;;;;;5132970;27;20826;-86
2021/12/29 01:29:37;;;;;;;1.98;0.70;;;23.80;82.50;;;;;;5132850;27;20367;-84
2021/12/29 01:32:04;;;;;;;3.03;0.82;;;24.60;82.00;;;;;;5132800;27;20379;-84
2021/12/29 01:34:31;;;;;;;2.65;1.00;;;25.70;80.70;;;;;;5132851;27;20385;-84
2021/12/29 01:36:58;;;;;;;3.67;0.82;;;26.40;76.60;;;;;;5133695;27;20373;-83
2021/12/29 01:39:25;;;;;;;2.38;0.90;;;26.60;73.00;;;;;;5132541;27;20399;-85
2021/12/29 01:41:55;;;;;;;3.07;0.90;;;26.80;70.70;;;;;;5132619;27;20400;-84
2021/12/29 01:44:24;;;;;;;1.58;0.80;;;26.60;71.70;;;;;;5132706;27;20376;-84
2021/12/29 01:46:52;;;;;;;2.63;0.90;;;26.60;71.00;;;;;;5114262;27;20413;-84
2021/12/29 01:49:19;;;;;;;4.15;0.90;;;26.80;68.20;;;;;;5132464;27;20822;-83
2021/12/29 01:51:59;;;;;;;2.42;0.80;;;26.80;67.20;;;;;;5132346;27;20439;-84
2021/12/29 01:54:26;;;;;;;2.35;0.80;;;26.40;68.20;;;;;;5132496;27;20397;-83
2021/12/29 01:56:56;;;;;;;3.63;0.80;;;26.10;71.30;;;;;;5132369;27;20407;-82
2021/12/29 01:59:25;;;;;;;2.83;0.70;;;25.80;70.00;;;;;;5132266;27;20362;-84
2021/12/29 02:01:52;;;;;;;4.05;0.80;;;25.80;68.70;;;;;;5132136;27;20392;-84
2021/12/29 02:04:20;;;;;;;2.20;0.70;;;25.70;69.70;;;;;;5132263;27;20393;-84
2021/12/29 02:06:49;;;;;;;2.05;1.00;;;25.60;70.90;;;;;;5131974;27;20361;-84
2021/12/29 02:09:16;;;;;;;1.73;0.70;;;25.40;69.90;;;;;;5131954;27;20384;-84
2021/12/29 02:11:44;;;;;;;2.42;0.90;;;25.20;70.70;;;;;;5131960;27;20444;-83
2021/12/29 02:14:11;;;;;;;2.30;0.73;;;24.70;73.60;;;;;;5130994;27;20464;-83
2021/12/29 02:16:39;;;;;;;2.23;0.70;;;24.50;74.00;;;;;;5131920;27;20357;-84
2021/12/29 02:19:09;;;;;;;3.42;0.60;;;24.50;74.00;;;;;;5131892;27;20380;-84
2021/12/29 02:21:38;;;;;;;1.85;0.70;;;24.10;73.60;;;;;;5131978;27;20381;-85
2021/12/29 02:26:39;;;;;;;2.10;0.63;;;24.40;74.70;;;;;;5131749;27;20349;-82
2021/12/29 02:29:10;;;;;;;1.85;0.60;;;24.50;75.40;;;;;;5131797;27;20413;-84
2021/12/29 02:31:38;;;;;;;2.75;0.60;;;24.80;73.10;;;;;;5131690;27;20432;-83
2021/12/29 02:34:08;;;;;;;1.33;0.57;;;24.80;72.00;;;;;;5131569;27;20852;-84
2021/12/29 02:36:42;;;;;;;1.93;0.83;;;25.00;73.30;;;;;;5131593;27;20364;-83
2021/12/29 02:39:11;;;;;;;1.70;0.75;;;25.10;73.50;;;;;;5131500;27;20365;-83
2021/12/29 02:41:44;;;;;;;1.70;0.57;;;25.20;72.60;;;;;;5131178;27;20763;-83
2021/12/29 02:44:16;;;;;;;1.67;0.52;;;25.60;71.30;;;;;;5131978;27;20408;-83
2021/12/29 02:46:44;;;;;;;1.50;0.80;;;25.80;68.60;;;;;;5131480;27;20361;-83
2021/12/29 02:49:11;;;;;;;2.15;0.70;;;26.30;67.80;;;;;;5131633;27;20373;-83
2021/12/29 02:51:39;;;;;;;1.70;0.50;;;26.80;65.00;;;;;;5131421;27;20369;-83
2021/12/29 02:54:06;;;;;;;1.65;0.50;;;26.40;67.50;;;;;;5131184;27;20433;-84
2021/12/29 02:56:33;;;;;;;2.90;0.70;;;26.50;68.10;;;;;;5131241;27;20373;-82
2021/12/29 02:59:00;;;;;;;2.28;0.60;;;26.70;65.70;;;;;;5131113;27;20369;-81
2021/12/29 03:01:28;;;;;;;2.03;0.60;;;26.60;65.10;;;;;;5130942;27;20475;-82
2021/12/29 03:03:57;;;;;;;1.63;0.50;;;26.40;65.10;;;;;;5130883;27;20881;-83
2021/12/29 03:06:24;;;;;;;1.70;0.57;;;26.80;65.00;;;;;;5130943;27;20360;-82
2021/12/29 03:08:51;;;;;;;1.60;0.60;;;27.20;66.80;;;;;;5130891;27;20369;-83
2021/12/29 03:11:19;;;;;;;2.00;0.60;;;27.80;67.70;;;;;;5131117;27;20522;-82
2021/12/29 03:13:46;;;;;;;2.60;0.70;;;28.40;63.50;;;;;;5130602;27;20400;-82
2021/12/29 03:16:15;;;;;;;1.90;0.60;;;28.70;61.50;;;;;;5130870;27;20799;-82
2021/12/29 03:18:42;;;;;;;2.30;0.60;;;28.40;60.00;;;;;;5130713;27;20373;-83
2021/12/29 03:21:10;;;;;;;1.65;0.60;;;28.20;61.30;;;;;;5131270;27;20376;-82
2021/12/29 03:23:38;;;;;;;1.55;0.60;;;28.20;60.70;;;;;;5130631;27;20381;-82
2021/12/29 03:26:09;;;;;;;1.70;0.70;;;28.60;62.60;;;;;;5130460;27;20429;-82
2021/12/29 03:28:37;;;;;;;1.00;0.60;;;29.00;62.20;;;;;;5130554;27;20364;-82
2021/12/29 03:31:10;;;;;;;1.47;0.60;;;29.90;56.60;;;;;;5130486;27;20387;-82
2021/12/29 03:33:37;;;;;;;1.70;0.67;;;29.50;58.50;;;;;;5130644;27;20792;-82
2021/12/29 03:36:05;;;;;;;1.67;0.60;;;29.10;57.70;;;;;;5130441;27;20459;-82
2021/12/29 03:38:36;;;;;;;1.70;0.50;;;29.20;59.20;;;;;;5130300;27;20480;-83
2021/12/29 03:41:06;;;;;;;1.90;0.50;;;29.40;58.00;;;;;;5130056;27;20454;-83
2021/12/29 03:43:34;;;;;;;2.17;0.60;;;29.50;56.00;;;;;;5130195;27;20396;-83
2021/12/29 03:46:03;;;;;;;1.90;0.65;;;29.60;54.80;;;;;;5130239;27;20494;-83
2021/12/29 03:48:32;;;;;;;2.50;0.50;;;28.90;55.50;;;;;;5130095;27;20438;-83
2021/12/29 03:51:01;;;;;;;1.40;0.65;;;28.40;59.30;;;;;;5111744;27;20429;-83
2021/12/29 03:53:28;;;;;;;2.15;0.60;;;27.80;59.00;;;;;;5130093;27;20456;-83
2021/12/29 03:55:57;;;;;;;1.53;0.57;;;27.30;60.20;;;;;;5130103;27;20383;-83
2021/12/29 03:58:26;;;;;;;1.73;0.60;;;27.30;61.10;;;;;;5130316;27;20425;-83
2021/12/29 04:00:57;;;;;;;2.30;0.50;;;27.50;59.40;;;;;;5129934;27;20388;-84
2021/12/29 04:03:25;;;;;;;1.20;0.60;;;28.20;57.80;;;;;;5129831;27;20856;-84
2021/12/29 04:05:52;;;;;;;2.50;0.70;;;29.10;55.80;;;;;;5129804;27;20424;-83
2021/12/29 04:08:19;;;;;;;1.85;0.70;;;29.70;55.00;;;;;;5129816;27;20380;-83
2021/12/29 04:10:47;;;;;;;2.00;0.70;;;30.40;56.70;;;;;;5129826;27;20373;-83
2021/12/29 04:13:14;;;;;;;0.93;0.50;;;31.90;54.20;;;;;;5130275;27;20373;-84
2021/12/29 04:15:41;;;;;;;1.90;0.65;;;33.30;49.20;;;;;;5129793;27;20376;-84
2021/12/29 04:18:26;;;;;;;2.92;1.20;;;33.40;45.80;;;;;;5129695;27;20400;-83
2021/12/29 04:20:57;;;;;;;3.00;1.17;;;32.50;49.50;;;;;;5129994;27;20381;-89
2021/12/29 04:23:27;;;;;;;2.17;0.60;;;32.10;49.40;;;;;;5111024;27;20487;-84
2021/12/29 04:25:56;;;;;;;1.57;0.50;;;31.30;48.40;;;;;;5129599;27;20490;-83
2021/12/29 04:28:25;;;;;;;1.38;0.52;;;30.30;50.40;;;;;;5129516;27;20444;-83
2021/12/29 04:31:02;;;;;;;1.42;0.70;;;29.60;52.30;;;;;;5129534;27;20451;-84
2021/12/29 04:33:31;;;;;;;2.08;0.80;;;29.40;53.90;;;;;;5129803;27;20888;-83
2021/12/29 04:35:58;;;;;;;2.60;0.80;;;30.30;53.20;;;;;;5129436;27;20438;-83
2021/12/29 04:38:26;;;;;;;1.52;0.60;;;31.10;53.90;;;;;;5129319;27;20365;-84
2021/12/29 04:40:55;;;;;;;1.70;0.60;;;32.30;49.50;;;;;;5129331;27;20398;-84
2021/12/29 04:43:23;;;;;;;2.75;0.80;;;33.30;49.10;;;;;;5129206;27;20400;-83
2021/12/29 04:45:51;;;;;;;2.15;0.60;;;34.20;45.80;;;;;;5129209;27;20365;-84
2021/12/29 04:48:19;;;;;;;1.73;0.70;;;33.50;48.40;;;;;;5129266;27;20421;-84
2021/12/29 04:50:53;;;;;;;1.10;0.60;;;33.20;46.30;;;;;;5129010;27;20400;-88
2021/12/29 04:53:23;;;;;;;2.10;0.60;;;32.40;46.80;;;;;;5129186;28;20376;-84
2021/12/29 04:55:50;;;;;;;3.03;0.80;;;31.90;48.00;;;;;;5128998;28;20714;-86
2021/12/29 04:58:20;;;;;;;1.13;0.50;;;31.80;47.40;;;;;;5129095;28;20383;-84
2021/12/29 05:00:49;;;;;;;2.43;0.70;;;31.10;49.10;;;;;;5129104;28;20373;-83
2021/12/29 05:03:20;;;;;;;2.22;0.70;;;31.00;51.20;;;;;;5128986;28;20440;-83
2021/12/29 05:08:33;;;;;;;3.25;0.80;;;32.20;47.90;;;;;;5129364;28;20366;-84
2021/12/29 05:11:08;;;;;;;1.58;0.77;;;33.10;47.50;;;;;;5128902;28;20473;-83
2021/12/29 05:13:40;;;;;;;1.65;0.57;;;33.10;47.20;;;;;;5128817;28;20369;-83
2021/12/29 05:16:08;;;;;;;1.60;0.60;;;33.20;45.70;;;;;;5129440;28;20856;-84
2021/12/29 05:18:37;;;;;;;2.03;0.60;;;32.80;46.30;;;;;;5128972;28;20404;-84
2021/12/29 05:21:06;;;;;;;1.95;0.75;;;33.00;47.20;;;;;;5128964;28;20373;-83
2021/12/29 05:23:33;;;;;;;1.88;0.70;;;33.60;45.80;;;;;;5129110;28;20385;-83
2021/12/29 05:26:00;;;;;;;2.10;0.52;;;33.70;47.00;;;;;;5129020;28;20799;-83
2021/12/29 05:28:27;;;;;;;1.98;0.70;;;34.20;45.40;;;;;;5110803;28;20401;-87
2021/12/29 05:30:55;;;;;;;1.23;0.57;;;34.50;45.70;;;;;;5129459;28;20365;-87
2021/12/29 05:33:23;;;;;;;1.20;0.60;;;33.70;44.40;;;;;;5129547;28;20365;-88
2021/12/29 05:35:50;;;;;;;2.30;0.60;;;32.40;46.20;;;;;;5128803;28;20773;-85
2021/12/29 05:38:17;;;;;;;1.67;0.60;;;31.00;48.60;;;;;;5128885;28;20369;-84
2021/12/29 05:40:44;;;;;;;2.30;0.80;;;30.40;50.10;;;;;;5128416;27;20540;-82
2021/12/29 05:43:11;;;;;;;1.48;0.70;;;30.40;50.00;;;;;;5128729;28;20404;-83
2021/12/29 05:45:38;;;;;;;3.17;0.90;;;31.10;51.10;;;;;;5128694;28;20863;-85
2021/12/29 05:48:05;;;;;;;1.63;0.80;;;31.80;51.30;;;;;;5132834;27;20721;-85
2021/12/29 05:50:33;;;;;;;2.40;0.90;;;32.50;49.20;;;;;;5131560;27;20365;-85
2021/12/29 05:53:02;;;;;;;4.10;0.85;;;32.90;49.90;;;;;;5132508;27;20446;-84
2021/12/29 05:55:29;;;;;;;2.10;0.80;;;33.10;49.40;;;;;;5113823;27;20377;-85
2021/12/29 05:57:57;;;;;;;1.48;0.80;;;33.40;48.50;;;;;;5132315;27;20452;-85
2021/12/29 06:00:25;;;;;;;2.35;0.70;;;33.40;48.60;;;;;;5137231;27;20376;-86
2021/12/29 06:02:53;;;;;;;1.73;0.70;;;32.60;49.50;;;;;;5132192;27;20752;-85
2021/12/29 06:05:21;;;;;;;2.75;0.80;;;32.80;50.50;;;;;;5131961;27;20365;-87
2021/12/29 06:07:49;;;;;;;1.58;0.88;;;33.00;48.60;;;;;;5132314;27;20426;-85
2021/12/29 06:10:16;;;;;;;2.40;0.95;;;33.40;47.30;;;;;;5132021;27;20468;-85
2021/12/29 06:12:43;;;;;;;2.77;0.90;;;33.50;47.20;;;;;;5132178;27;20460;-85
2021/12/29 06:15:10;;;;;;;1.65;0.80;;;33.30;46.90;;;;;;5132092;27;20452;-85
2021/12/29 06:17:38;;;;;;;2.40;0.80;;;33.10;49.00;;;;;;5131965;27;20390;-85
2021/12/29 06:20:08;;;;;;;1.95;0.70;;;33.50;47.90;;;;;;5131922;27;20373;-85
2021/12/29 06:22:36;;;;;;;1.33;0.70;;;33.90;46.50;;;;;;5132002;27;20425;-85
2021/12/29 06:25:04;;;;;;;3.78;0.93;;;34.10;46.60;;;;;;5132205;27;20393;-85
2021/12/29 06:27:32;;;;;;;1.53;0.80;;;33.40;48.00;;;;;;5131688;27;20365;-84
2021/12/29 06:29:59;;;;;;;2.58;0.90;;;33.20;48.70;;;;;;5131789;27;20489;-84
2021/12/29 06:32:26;;;;;;;4.30;1.00;;;33.40;48.00;;;;;;5113258;27;20823;-85
2021/12/29 06:34:54;;;;;;;2.30;0.80;;;33.30;48.00;;;;;;5113266;27;20365;-85
2021/12/29 06:37:22;;;;;;;3.67;0.87;;;33.20;48.10;;;;;;5131665;27;20380;-84
2021/12/29 06:39:49;;;;;;;1.55;0.80;;;33.20;49.00;;;;;;5131304;27;20383;-86
2021/12/29 06:42:17;;;;;;;3.90;0.73;;;33.30;47.20;;;;;;5131574;27;20385;-85
2021/12/29 06:44:46;;;;;;;2.17;0.88;;;33.20;47.90;;;;;;5131252;27;20376;-85
2021/12/29 06:47:14;;;;;;;1.33;0.70;;;32.90;48.10;;;;;;5112972;27;20400;-85
2021/12/29 06:49:42;;;;;;;2.03;0.80;;;32.90;48.20;;;;;;5131272;27;20374;-86
2021/12/29 06:52:10;;;;;;;2.28;0.70;;;32.90;47.80;;;;;;5112984;27;20369;-85
2021/12/29 06:54:38;;;;;;;3.08;0.80;;;32.90;48.60;;;;;;5131376;27;20373;-86
2021/12/29 06:57:05;;;;;;;1.58;0.80;;;33.10;48.30;;;;;;5131706;27;20369;-87
2021/12/29 06:59:32;;;;;;;2.10;0.90;;;33.20;47.50;;;;;;5131314;27;20426;-86
2021/12/29 07:01:59;;;;;;;1.90;0.70;;;33.30;47.40;;;;;;5130750;27;20870;-85
2021/12/29 07:04:26;;;;;;;1.40;0.70;;;33.20;47.20;;;;;;5131200;27;20414;-86
2021/12/29 07:06:54;;;;;;;1.88;0.73;;;32.90;47.90;;;;;;5112560;27;20446;-85
2021/12/29 07:09:21;;;;;;;1.88;0.70;;;32.50;48.80;;;;;;5130953;27;20425;-85
2021/12/29 07:11:48;;;;;;;2.03;0.80;;;32.70;48.90;;;;;;5130955;27;20366;-87
2021/12/29 07:14:15;;;;;;;3.90;0.80;;;32.90;47.60;;;;;;5130972;27;20732;-86
2021/12/29 07:16:47;;;;;;;1.83;0.60;;;32.80;47.80;;;;;;5130896;27;20376;-86
2021/12/29 07:19:15;;;;;;;1.80;0.73;;;32.80;48.20;;;;;;5131371;27;20698;-86
2021/12/29 07:21:42;;;;;;;2.40;0.70;;;32.80;48.10;;;;;;5130713;27;20461;-87
2021/12/29 07:24:10;;;;;;;2.50;0.90;;;32.60;48.30;;;;;;5131256;27;20373;-88
2021/12/29 07:26:37;;;;;;;2.15;0.70;;;32.20;49.00;;;;;;5132502;27;20702;-88
2021/12/29 07:29:06;;;;;;;1.70;0.70;;;32.10;49.10;;;;;;5130616;27;20369;-87
2021/12/29 07:31:33;;;;;;;2.27;0.70;;;32.20;48.70;;;;;;5130752;27;20417;-87
2021/12/29 07:34:01;;;;;;;1.17;0.70;;;32.10;48.90;;;;;;5130539;27;20369;-89
2021/12/29 07:36:28;;;;;;;1.30;0.77;;;32.10;48.90;;;;;;5130919;27;20372;-88
2021/12/29 07:38:57;;;;;;;2.08;0.90;;;31.80;49.10;;;;;;5130484;27;20434;-86
2021/12/29 07:41:24;;;;;;;2.10;0.80;;;31.80;48.90;;;;;;5130021;27;20389;-87
2021/12/29 07:43:51;;;;;;;4.88;1.00;;;31.80;49.00;;;;;;5130526;27;20864;-88
2021/12/29 07:46:18;;;;;;;1.87;0.80;;;31.70;48.80;;;;;;5131926;27;20376;-92
2021/12/29 07:48:45;;;;;;;2.60;0.73;;;31.40;49.50;;;;;;5112570;27;20464;-92
2021/12/29 07:51:15;;;;;;;1.70;0.68;;;31.10;49.50;;;;;;5130525;27;20378;-88
2021/12/29 07:53:42;;;;;;;0.90;0.50;;;30.20;50.70;;;;;;5114154;27;20377;-90
2021/12/29 07:56:09;;;;;;;1.73;0.63;;;30.00;52.10;;;;;;5113186;27;20522;-86
2021/12/29 07:58:36;;;;;;;1.88;0.85;;;30.20;51.30;;;;;;5130272;27;20389;-86
2021/12/29 08:01:04;;;;;;;2.17;0.70;;;30.40;50.60;;;;;;5130473;27;20392;-87
2021/12/29 08:03:31;;;;;;;1.85;0.50;;;30.40;50.00;;;;;;5129926;27;20484;-86
2021/12/29 08:05:58;;;;;;;1.55;0.70;;;30.20;51.10;;;;;;5111672;27;20460;-87
2021/12/29 08:08:25;;;;;;;1.57;0.70;;;29.90;51.20;;;;;;5129782;27;20400;-86
2021/12/29 08:10:53;;;;;;;2.65;0.70;;;29.80;51.40;;;;;;5111514;27;20391;-87
2021/12/29 08:13:20;;;;;;;1.95;0.60;;;29.70;51.50;;;;;;5129049;27;20848;-87
2021/12/29 08:15:47;;;;;;;2.13;0.70;;;29.60;51.70;;;;;;5134458;27;20437;-85
2021/12/29 08:18:14;;;;;;;1.35;0.70;;;29.40;52.10;;;;;;5131484;27;20371;-92
2021/12/29 08:20:41;;;;;;;1.60;0.70;;;29.00;52.70;;;;;;5129875;27;20862;-87
2021/12/29 08:23:10;;;;;;;2.03;0.70;;;28.70;53.90;;;;;;5129545;27;20392;-86
2021/12/29 08:25:38;;;;;;;2.10;0.68;;;27.90;55.60;;;;;;5129629;27;20452;-86
2021/12/29 08:28:05;;;;;;;1.57;0.73;;;27.30;56.60;;;;;;5129568;27;20737;-86
2021/12/29 08:30:34;;;;;;;3.22;0.85;;;26.90;57.90;;;;;;5129759;27;20471;-86
2021/12/29 08:33:02;;;;;;;2.17;0.60;;;26.30;59.20;;;;;;5129634;27;20373;-86
2021/12/29 08:35:29;;;;;;;1.88;0.65;;;26.30;59.70;;;;;;5129446;27;20737;-86
2021/12/29 08:37:57;;;;;;;2.25;0.70;;;26.20;60.00;;;;;;5134043;27;20381;-86
2021/12/29 08:40:25;;;;;;;2.25;0.77;;;26.00;60.60;;;;;;5122098;27;20967;-85
2021/12/29 08:42:55;;;;;;;1.40;0.60;;;25.60;61.00;;;;;;5109074;28;20432;-85
2021/12/29 08:45:23;;;;;;;2.13;0.60;;;25.30;62.20;;;;;;5108858;28;20846;-85
2021/12/29 08:47:52;;;;;;;2.70;0.70;;;25.10;63.20;;;;;;5108890;28;20406;-85
2021/12/29 08:50:20;;;;;;;3.95;0.80;;;24.80;64.40;;;;;;5108725;28;20367;-85
2021/12/29 08:52:47;;;;;;;2.05;0.70;;;24.70;64.50;;;;;;5107465;28;20746;-85
2021/12/29 08:55:14;;;;;;;2.85;0.70;;;24.70;64.40;;;;;;5108612;28;20388;-85
2021/12/29 08:57:42;;;;;;;2.20;0.70;;;24.60;64.90;;;;;;5109036;28;20427;-85
2021/12/29 09:00:13;;;;;;;2.07;0.80;;;24.40;65.30;;;;;;5108612;28;20375;-85
2021/12/29 09:02:41;;;;;;;1.60;0.63;;;24.10;66.50;;;;;;5108894;28;20482;-85
2021/12/29 09:05:09;;;;;;;2.80;0.70;;;23.90;67.90;;;;;;5108556;28;20395;-86
2021/12/29 09:07:37;;;;;;;2.80;0.80;;;23.50;69.30;;;;;;5108651;28;20454;-85
2021/12/29 09:10:06;;;;;;;3.03;0.70;;;23.20;70.80;;;;;;5108488;28;20371;-83
2021/12/29 09:12:33;;;;;;;2.25;0.70;;;22.90;72.90;;;;;;5108563;28;20462;-86
2021/12/29 09:15:00;;;;;;;2.58;0.80;;;22.60;74.50;;;;;;5108333;28;20738;-85
2021/12/29 09:17:27;;;;;;;2.22;0.70;;;22.30;76.70;;;;;;5108620;28;20409;-85
2021/12/29 09:19:54;;;;;;;4.53;1.05;;;22.10;78.90;;;;;;5108432;28;20738;-84
2021/12/29 09:22:21;;;;;;;4.22;1.10;;;22.00;81.00;;;;;;5115304;28;20482;-85
2021/12/29 09:24:49;;;;;;;2.22;0.80;;;21.80;83.60;;;;;;5112210;28;20367;-84
2021/12/29 09:27:16;;;;;;;1.60;0.80;;;21.80;85.80;;;;;;5112235;28;20378;-84
2021/12/29 09:29:44;;;;;;;2.70;0.82;;;21.70;87.50;;;;;;5112207;28;20411;-84
2021/12/29 09:32:11;;;;;;;1.92;0.90;;;21.60;89.00;;;;;;5112624;28;20472;-84
2021/12/29 09:34:39;;;;;;;2.40;0.90;;;21.50;90.10;;;;;;5112288;28;20359;-84
2021/12/29 09:37:06;;;;;;;3.33;0.90;;;21.40;90.90;;;;;;5112585;28;20385;-84
2021/12/29 09:39:37;;;;;;;2.80;0.88;;;21.20;91.90;;;;;;5112732;27;20370;-84
2021/12/29 09:42:04;;;;;;;1.50;0.80;;;21.20;92.90;;;;;;5132687;27;20393;-84
2021/12/29 09:44:31;;;;;;;3.47;0.90;;;21.10;93.70;;;;;;5132605;27;20388;-85
2021/12/29 09:46:58;;;;;;;2.05;0.90;;;21.10;94.30;;;;;;5132673;27;20369;-88
2021/12/29 09:49:25;;;;;;;2.85;1.00;;;21.00;94.70;;;;;;5132530;27;20357;-84
2021/12/29 09:51:52;;;;;;;2.60;0.97;;;20.90;95.30;;;;;;5132545;27;20373;-83
2021/12/29 09:54:21;;;;;;;4.03;1.10;;;20.90;95.90;;;;;;5132917;27;20851;-84
2021/12/29 09:56:48;;;;;;;3.03;0.90;;;20.80;96.40;;;;;;5132319;27;20455;-84
2021/12/29 09:59:15;;;;;;;1.95;0.80;;;20.80;96.80;;;;;;5132317;27;20369;-84
2021/12/29 10:01:42;;;;;;;3.67;0.80;;;20.70;97.10;;;;;;5132316;27;20471;-84
2021/12/29 10:04:09;;;;;;;2.97;1.10;;;20.70;97.60;;;;;;5132434;27;20403;-83
2021/12/29 10:06:37;;;;;;;2.95;0.80;;;20.60;97.90;;;;;;5132317;27;20368;-83
2021/12/29 10:09:18;;;;;;;3.50;0.95;;;20.50;98.20;;;;;;5132183;27;20433;-84
2021/12/29 10:11:46;;;;;;;3.22;1.00;;;20.50;98.60;;;;;;5114287;27;20713;-85
2021/12/29 10:14:16;;;;;;;4.00;1.00;;;20.50;99.00;;;;;;5132104;27;20365;-85
2021/12/29 10:16:47;;;;;;;4.05;1.17;;;20.50;99.40;;;;;;5132529;27;20446;-85
2021/12/29 10:19:15;;;;;;;4.28;1.13;;;20.40;99.80;;;;;;5132037;27;20725;-84
2021/12/29 10:21:46;;;;;;;2.67;0.90;;;20.30;99.90;;;;;;5131979;27;20424;-84
2021/12/29 10:24:16;;;;;;;2.67;1.00;;;20.30;99.90;;;;;;5132101;27;20369;-85
2021/12/29 10:26:49;;;;;;;3.67;1.10;;;20.20;99.90;;;;;;5131918;27;20452;-84
2021/12/29 10:29:19;;;;;;;3.08;1.08;;;20.10;99.90;;;;;;5132095;27;20365;-84
2021/12/29 10:31:50;;;;;;;3.80;0.93;;;20.00;99.90;;;;;;5131825;27;20985;-83
2021/12/29 10:34:26;;;;;;;4.07;0.93;;;20.00;99.90;;;;;;5131919;27;20369;-85
2021/12/29 10:36:59;;;;;;;2.45;0.90;;;19.90;99.90;;;;;;5131394;27;20349;-84
2021/12/29 10:39:37;;;;;;;3.13;1.00;;;19.80;99.90;;;;;;5131847;27;20453;-85
2021/12/29 10:42:10;;;;;;;3.70;1.00;;;19.80;99.90;;;;;;5113049;27;20756;-84
2021/12/29 10:44:45;;;;;;;2.08;0.90;;;19.70;99.90;;;;;;5131616;27;20353;-85
2021/12/29 10:47:26;;;;;;;2.13;1.00;;;19.70;99.90;;;;;;5113245;27;20384;-85
2021/12/29 10:50:05;;;;;;;4.37;1.27;;;19.70;99.90;;;;;;5131914;27;20369;-86
2021/12/29 10:52:32;;;;;;;6.97;2.50;;;19.60;99.90;;;;;;5131752;27;20362;-88
2021/12/29 10:55:00;;;;;;;6.68;2.75;;;19.60;99.90;;;;;;5131744;27;20844;-84
2021/12/29 10:57:27;;;;;;;5.50;2.10;;;19.50;99.90;;;;;;5113013;27;20383;-84
2021/12/29 10:59:57;;;;;;;3.03;1.30;;;19.50;99.90;;;;;;5131298;27;20384;-84
2021/12/29 11:02:30;;;;;;;4.18;1.10;;;19.50;99.90;;;;;;5131662;27;20469;-85
2021/12/29 11:05:00;;;;;;;3.63;1.10;;;19.40;99.90;;;;;;5131237;27;20376;-84
2021/12/29 11:07:30;;;;;;;3.63;1.10;;;19.40;99.90;;;;;;5130946;27;20383;-87
2021/12/29 11:10:08;;;;;;;3.70;1.10;;;19.30;99.90;;;;;;5130896;27;20910;-86
2021/12/29 11:12:45;;;;;;;3.58;0.98;;;19.20;99.90;;;;;;5131006;27;20369;-94
2021/12/29 11:15:26;;;;;;;2.95;1.10;;;19.20;99.90;;;;;;5131710;27;20465;-83
2021/12/29 11:18:01;;;;;;;3.95;1.17;;;19.10;99.90;;;;;;5130694;27;20393;-86
2021/12/29 11:20:31;;;;;;;2.50;1.02;;;19.10;99.90;;;;;;5131115;27;20353;-82
2021/12/29 11:23:13;;;;;;;2.88;1.02;;;19.10;99.90;;;;;;5131227;27;20415;-82
2021/12/29 11:25:42;;;;;;;3.25;1.10;;;19.00;99.90;;;;;;5130685;27;20382;-82
2021/12/29 11:28:27;;;;;;;4.82;1.30;;;18.90;99.90;;;;;;5131534;27;20759;-85
2021/12/29 11:30:57;;;;;;;3.93;1.60;;;18.90;99.90;;;;;;5130509;27;20450;-82
2021/12/29 11:33:28;;;;;;;3.05;1.10;;;18.80;99.90;;;;;;5130447;27;20380;-82
2021/12/29 11:35:58;;;;;;;4.07;1.30;;;18.80;99.90;;;;;;5130361;27;20444;-84
2021/12/29 11:38:27;;;;;;;3.42;1.17;;;18.80;99.90;;;;;;5130284;27;20365;-82
2021/12/29 11:40:57;;;;;;;3.80;1.20;;;18.70;99.90;;;;;;5130199;27;20393;-84
2021/12/29 11:43:25;;;;;;;1.95;0.90;;;18.70;99.90;;;;;;5130345;27;20384;-83
2021/12/29 11:45:56;;;;;;;3.70;1.10;;;18.70;99.90;;;;;;5130314;27;20369;-83
2021/12/29 11:48:24;;;;;;;2.25;1.20;;;18.60;99.90;;;;;;5130258;27;20357;-84
2021/12/29 11:51:00;;;;;;;2.95;1.15;;;18.60;99.90;;;;;;5130242;27;20370;-84
2021/12/29 11:53:33;;;;;;;4.40;1.13;;;18.60;99.90;;;;;;5130262;27;20391;-84
2021/12/29 11:56:14;;;;;;;4.25;1.30;;;18.60;99.90;;;;;;5130390;27;20365;-84
2021/12/29 11:58:43;;;;;;;3.38;1.20;;;18.60;99.90;;;;;;5130113;27;20402;-84
2021/12/29 12:01:09;;;;;;;4.72;1.20;;;18.70;99.90;;;;;;5129994;27;20421;-83
2021/12/29 12:03:57;;;;;;;4.18;1.30;;;18.80;99.90;;;;;;5130457;27;20404;-84
2021/12/29 12:06:29;;;;;;;4.65;1.40;;;18.90;99.90;;;;;;5130069;27;20365;-83
2021/12/29 12:09:05;;;;;;;4.05;1.40;;;19.00;99.90;;;;;;5129886;27;20361;-83
2021/12/29 12:11:32;;;;;;;3.05;1.10;;;19.10;99.90;;;;;;5130181;27;20860;-83
2021/12/29 12:14:00;;;;;;;3.22;1.30;;;19.20;99.90;;;;;;5130146;27;20381;-83
2021/12/29 12:16:27;;;;;;;4.57;1.45;;;19.30;99.90;;;;;;5130249;27;20369;-83
2021/12/29 12:18:59;;;;;;;4.53;1.47;;;19.30;99.90;;;;;;5129974;27;20456;-83
2021/12/29 12:21:39;;;;;;;3.70;1.35;;;19.40;99.90;;;;;;5130040;27;20365;-84
2021/12/29 12:24:24;;;;;;;2.93;1.50;;;19.40;99.90;;;;;;5130123;27;20372;-85
2021/12/29 12:27:00;;;;;;;4.73;1.50;;;19.50;99.90;;;;;;5129942;27;20392;-84
2021/12/29 12:29:30;;;;;;;4.18;1.45;;;19.50;99.90;;;;;;5129591;27;20357;-84
2021/12/29 12:32:12;;;;;;;4.07;1.77;;;19.50;99.90;;;;;;5129383;27;20430;-84
2021/12/29 12:35:01;;;;;;;5.30;2.58;;;19.50;99.90;;;;;;5129487;27;20440;-83
2021/12/29 12:37:41;;;;;;;3.55;1.80;;;18.90;99.90;;;;;;5129412;27;20389;-83
2021/12/29 12:40:24;;;;;;;4.97;2.00;;;19.40;99.90;;;;;;5129068;27;20437;-83
2021/12/29 12:43:03;;;;;;;4.05;1.73;;;19.30;99.90;;;;;;5129190;27;20413;-84
2021/12/29 12:45:36;;;;;;;6.90;1.67;;;19.30;99.90;;;;;;5129322;27;20353;-82
2021/12/29 12:48:08;;;;;;;4.53;1.70;;;19.30;99.90;;;;;;5129726;27;20885;-82
2021/12/29 12:50:38;;;;;;;2.88;1.58;;;19.30;99.90;;;;;;5129302;27;20670;-83
2021/12/29 12:53:05;;;;;;;5.40;1.70;;;19.30;99.90;;;;;;5129290;27;20376;-82
2021/12/29 12:55:49;;;;;;;4.30;1.38;;;19.30;99.90;;;;;;5129189;28;20410;-82
2021/12/29 12:58:17;;;;;;;4.07;1.60;;;19.30;99.90;;;;;;5131318;27;20360;-82
2021/12/29 13:00:55;;;;;;;3.70;1.40;;;19.30;99.90;;;;;;5136044;27;20369;-83
2021/12/29 13:03:24;;;;;;;2.75;1.52;;;19.30;99.90;;;;;;5136221;27;20511;-83